sensor_id;sensor_type;location;lat;lon;timestamp;pressure;altitude;pressure_sealevel;temperature;humidity
7768;BME280;3928;42.626;23.382;2023-04-01T00:01:00;93308.91;;;16.42;44.69
7768;BME280;3928;42.626;23.382;2023-04-01T00:03:28;93320.34;;;16.37;44.96
7768;BME280;3928;42.626;23.382;2023-04-01T00:05:56;93317.09;;;16.18;45.80
7768;BME280;3928;42.626;23.382;2023-04-01T00:08:26;93314.25;;;16.07;46.25
7768;BME280;3928;42.626;23.382;2023-04-01T00:10:53;93307.13;;;15.79;46.63
7768;BME280;3928;42.626;23.382;2023-04-01T00:13:20;93320.91;;;15.62;47.99
7768;BME280;3928;42.626;23.382;2023-04-01T00:15:47;93319.72;;;15.52;48.25
7768;BME280;3928;42.626;23.382;2023-04-01T00:18:15;93316.59;;;15.45;48.33
7768;BME280;3928;42.626;23.382;2023-04-01T00:20:44;93327.94;;;15.26;49.00
7768;BME280;3928;42.626;23.382;2023-04-01T00:23:11;93289.34;;;14.71;49.50
7768;BME280;3928;42.626;23.382;2023-04-01T00:25:40;93268.22;;;14.45;50.47
7768;BME280;3928;42.626;23.382;2023-04-01T00:28:06;93319.84;;;14.45;52.06
7768;BME280;3928;42.626;23.382;2023-04-01T00:30:33;93314.66;;;14.45;51.52
7768;BME280;3928;42.626;23.382;2023-04-01T00:33:02;93312.69;;;14.50;52.06
7768;BME280;3928;42.626;23.382;2023-04-01T00:35:28;93331.53;;;13.96;53.75
7768;BME280;3928;42.626;23.382;2023-04-01T00:37:55;93283.16;;;13.82;53.68
7768;BME280;3928;42.626;23.382;2023-04-01T00:40:26;93302.03;;;13.83;54.54
7768;BME280;3928;42.626;23.382;2023-04-01T00:42:54;93304.88;;;13.58;56.33
7768;BME280;3928;42.626;23.382;2023-04-01T00:45:29;93287.97;;;13.71;55.74
7768;BME280;3928;42.626;23.382;2023-04-01T00:47:59;93283.88;;;13.86;55.34
7768;BME280;3928;42.626;23.382;2023-04-01T00:50:28;93285.47;;;13.88;55.49
7768;BME280;3928;42.626;23.382;2023-04-01T00:52:58;93285.94;;;13.96;55.27
7768;BME280;3928;42.626;23.382;2023-04-01T00:55:27;93275.19;;;14.05;54.93
7768;BME280;3928;42.626;23.382;2023-04-01T00:57:57;93266.56;;;14.07;54.35
7768;BME280;3928;42.626;23.382;2023-04-01T01:00:25;93284.66;;;14.24;53.68
7768;BME280;3928;42.626;23.382;2023-04-01T01:02:52;93290.81;;;13.65;55.97
7768;BME280;3928;42.626;23.382;2023-04-01T01:05:23;93276.31;;;13.81;56.07
7768;BME280;3928;42.626;23.382;2023-04-01T01:08:02;93272.16;;;13.97;54.92
7768;BME280;3928;42.626;23.382;2023-04-01T01:10:33;93261.91;;;13.77;55.17
7768;BME280;3928;42.626;23.382;2023-04-01T01:13:09;93258.44;;;13.78;54.97
7768;BME280;3928;42.626;23.382;2023-04-01T01:15:41;93249.97;;;13.93;54.01
7768;BME280;3928;42.626;23.382;2023-04-01T01:18:18;93231.66;;;13.99;54.42
7768;BME280;3928;42.626;23.382;2023-04-01T01:21:03;93212.69;;;14.00;54.22
7768;BME280;3928;42.626;23.382;2023-04-01T01:23:47;93244.13;;;13.90;53.49
7768;BME280;3928;42.626;23.382;2023-04-01T01:26:41;93203.03;;;13.68;53.75
7768;BME280;3928;42.626;23.382;2023-04-01T01:29:36;93220.50;;;13.99;52.68
7768;BME280;3928;42.626;23.382;2023-04-01T01:32:13;93249.41;;;14.05;53.21
7768;BME280;3928;42.626;23.382;2023-04-01T01:34:50;93234.75;;;14.06;53.09
7768;BME280;3928;42.626;23.382;2023-04-01T01:37:23;93219.31;;;13.87;52.83
7768;BME280;3928;42.626;23.382;2023-04-01T01:39:53;93210.84;;;13.85;52.17
7768;BME280;3928;42.626;23.382;2023-04-01T01:42:22;93212.84;;;13.97;51.57
7768;BME280;3928;42.626;23.382;2023-04-01T01:44:52;93203.13;;;14.20;50.97
7768;BME280;3928;42.626;23.382;2023-04-01T01:47:22;93219.41;;;14.22;50.47
7768;BME280;3928;42.626;23.382;2023-04-01T01:49:50;93205.88;;;14.17;50.10
7768;BME280;3928;42.626;23.382;2023-04-01T01:52:17;93206.81;;;14.33;49.38
7768;BME280;3928;42.626;23.382;2023-04-01T01:54:49;93211.59;;;13.87;50.84
7768;BME280;3928;42.626;23.382;2023-04-01T01:57:17;93206.19;;;14.11;49.82
7768;BME280;3928;42.626;23.382;2023-04-01T01:59:46;93198.00;;;14.37;48.91
7768;BME280;3928;42.626;23.382;2023-04-01T02:02:15;93180.28;;;14.48;49.04
7768;BME280;3928;42.626;23.382;2023-04-01T02:04:45;93192.59;;;14.60;48.11
7768;BME280;3928;42.626;23.382;2023-04-01T02:07:16;93197.94;;;14.56;47.74
7768;BME280;3928;42.626;23.382;2023-04-01T02:09:45;93177.69;;;14.66;47.25
7768;BME280;3928;42.626;23.382;2023-04-01T02:12:15;93185.59;;;14.62;47.97
7768;BME280;3928;42.626;23.382;2023-04-01T02:14:46;93165.53;;;14.68;47.15
7768;BME280;3928;42.626;23.382;2023-04-01T02:17:15;93162.19;;;14.66;47.32
7768;BME280;3928;42.626;23.382;2023-04-01T02:19:47;93181.31;;;14.96;47.14
7768;BME280;3928;42.626;23.382;2023-04-01T02:22:18;93180.06;;;15.03;46.42
7768;BME280;3928;42.626;23.382;2023-04-01T02:24:46;93186.84;;;15.06;46.36
7768;BME280;3928;42.626;23.382;2023-04-01T02:27:16;93181.16;;;15.15;46.80
7768;BME280;3928;42.626;23.382;2023-04-01T02:29:43;93166.28;;;15.20;46.19
7768;BME280;3928;42.626;23.382;2023-04-01T02:32:10;93171.69;;;15.15;46.37
7768;BME280;3928;42.626;23.382;2023-04-01T02:34:39;93163.53;;;15.23;46.20
7768;BME280;3928;42.626;23.382;2023-04-01T02:37:06;93176.88;;;15.15;46.02
7768;BME280;3928;42.626;23.382;2023-04-01T02:39:33;93163.78;;;15.18;46.53
7768;BME280;3928;42.626;23.382;2023-04-01T02:42:00;93102.50;;;14.72;46.61
7768;BME280;3928;42.626;23.382;2023-04-01T02:44:28;93150.78;;;14.87;46.74
7768;BME280;3928;42.626;23.382;2023-04-01T02:46:55;93170.00;;;15.14;46.42
7768;BME280;3928;42.626;23.382;2023-04-01T02:49:22;93157.06;;;15.14;46.49
7768;BME280;3928;42.626;23.382;2023-04-01T02:51:49;93175.31;;;15.29;45.63
7768;BME280;3928;42.626;23.382;2023-04-01T02:54:17;93161.66;;;15.09;45.26
7768;BME280;3928;42.626;23.382;2023-04-01T02:56:44;93188.63;;;14.71;47.49
7768;BME280;3928;42.626;23.382;2023-04-01T02:59:11;93173.44;;;14.47;47.11
7768;BME280;3928;42.626;23.382;2023-04-01T03:01:39;93186.75;;;14.90;46.57
7768;BME280;3928;42.626;23.382;2023-04-01T03:04:06;93192.56;;;14.95;45.96
7768;BME280;3928;42.626;23.382;2023-04-01T03:06:33;93206.53;;;14.74;46.53
7768;BME280;3928;42.626;23.382;2023-04-01T03:09:00;93207.84;;;14.65;46.57
7768;BME280;3928;42.626;23.382;2023-04-01T03:11:27;93200.94;;;14.83;45.97
7768;BME280;3928;42.626;23.382;2023-04-01T03:13:54;93216.38;;;15.00;45.85
7768;BME280;3928;42.626;23.382;2023-04-01T03:16:21;93210.47;;;14.98;46.41
7768;BME280;3928;42.626;23.382;2023-04-01T03:18:50;93219.00;;;14.83;46.71
7768;BME280;3928;42.626;23.382;2023-04-01T03:21:19;93200.31;;;14.95;46.14
7768;BME280;3928;42.626;23.382;2023-04-01T03:23:46;93203.81;;;14.94;46.49
7768;BME280;3928;42.626;23.382;2023-04-01T03:26:13;93195.50;;;15.05;46.39
7768;BME280;3928;42.626;23.382;2023-04-01T03:28:41;93217.94;;;14.87;46.93
7768;BME280;3928;42.626;23.382;2023-04-01T03:31:07;93220.09;;;14.25;44.23
7768;BME280;3928;42.626;23.382;2023-04-01T03:33:34;93157.50;;;14.56;39.47
7768;BME280;3928;42.626;23.382;2023-04-01T03:36:03;93109.22;;;14.58;39.48
7768;BME280;3928;42.626;23.382;2023-04-01T03:38:32;93187.44;;;15.27;39.13
7768;BME280;3928;42.626;23.382;2023-04-01T03:40:58;93190.63;;;15.65;40.38
7768;BME280;3928;42.626;23.382;2023-04-01T03:43:25;93188.59;;;15.54;41.37
7768;BME280;3928;42.626;23.382;2023-04-01T03:45:53;93191.81;;;15.75;41.52
7768;BME280;3928;42.626;23.382;2023-04-01T03:48:21;93203.28;;;15.85;42.34
7768;BME280;3928;42.626;23.382;2023-04-01T03:50:48;93198.97;;;15.70;46.11
7768;BME280;3928;42.626;23.382;2023-04-01T03:53:16;93203.22;;;15.38;47.44
7768;BME280;3928;42.626;23.382;2023-04-01T03:55:43;93145.50;;;15.06;46.40
7768;BME280;3928;42.626;23.382;2023-04-01T03:58:10;93160.91;;;15.07;47.81
7768;BME280;3928;42.626;23.382;2023-04-01T04:00:37;93165.69;;;14.82;48.51
7768;BME280;3928;42.626;23.382;2023-04-01T04:03:05;93125.38;;;14.62;49.10
7768;BME280;3928;42.626;23.382;2023-04-01T04:05:32;93133.06;;;14.46;50.29
7768;BME280;3928;42.626;23.382;2023-04-01T04:07:59;93123.31;;;14.34;51.38
7768;BME280;3928;42.626;23.382;2023-04-01T04:10:27;93100.94;;;14.34;51.09
7768;BME280;3928;42.626;23.382;2023-04-01T04:12:54;93121.25;;;14.41;50.69
7768;BME280;3928;42.626;23.382;2023-04-01T04:15:21;93124.09;;;14.53;50.09
7768;BME280;3928;42.626;23.382;2023-04-01T04:17:48;93109.25;;;14.40;50.27
7768;BME280;3928;42.626;23.382;2023-04-01T04:20:15;93094.19;;;14.49;50.00
7768;BME280;3928;42.626;23.382;2023-04-01T04:22:42;93099.72;;;14.07;51.98
7768;BME280;3928;42.626;23.382;2023-04-01T04:25:09;93098.63;;;13.77;52.50
7768;BME280;3928;42.626;23.382;2023-04-01T04:27:37;93089.69;;;13.84;52.54
7768;BME280;3928;42.626;23.382;2023-04-01T04:30:06;93081.63;;;13.72;52.38
7768;BME280;3928;42.626;23.382;2023-04-01T04:32:33;93077.47;;;14.04;51.27
7768;BME280;3928;42.626;23.382;2023-04-01T04:35:00;93070.72;;;14.19;50.94
7768;BME280;3928;42.626;23.382;2023-04-01T04:37:27;93074.75;;;14.25;50.49
7768;BME280;3928;42.626;23.382;2023-04-01T04:39:54;93070.78;;;14.35;49.30
7768;BME280;3928;42.626;23.382;2023-04-01T04:42:20;93056.78;;;14.23;49.79
7768;BME280;3928;42.626;23.382;2023-04-01T04:44:49;93054.06;;;14.42;49.26
7768;BME280;3928;42.626;23.382;2023-04-01T04:47:15;93044.06;;;14.53;48.42
7768;BME280;3928;42.626;23.382;2023-04-01T04:49:42;93033.59;;;14.56;48.68
7768;BME280;3928;42.626;23.382;2023-04-01T04:52:09;93030.31;;;14.53;47.97
7768;BME280;3928;42.626;23.382;2023-04-01T04:54:36;93022.56;;;14.53;47.48
7768;BME280;3928;42.626;23.382;2023-04-01T04:57:03;93025.91;;;14.55;45.17
7768;BME280;3928;42.626;23.382;2023-04-01T04:59:30;93010.09;;;14.61;44.27
7768;BME280;3928;42.626;23.382;2023-04-01T05:01:59;93013.78;;;14.73;42.32
7768;BME280;3928;42.626;23.382;2023-04-01T05:04:25;93014.47;;;14.92;41.22
7768;BME280;3928;42.626;23.382;2023-04-01T05:06:52;93019.00;;;15.04;42.62
7768;BME280;3928;42.626;23.382;2023-04-01T05:09:19;93014.78;;;15.02;43.13
7768;BME280;3928;42.626;23.382;2023-04-01T05:11:46;93013.81;;;15.04;41.92
7768;BME280;3928;42.626;23.382;2023-04-01T05:14:14;92987.47;;;14.82;42.85
7768;BME280;3928;42.626;23.382;2023-04-01T05:16:40;93022.06;;;15.11;44.03
7768;BME280;3928;42.626;23.382;2023-04-01T05:19:08;93027.47;;;15.06;46.28
7768;BME280;3928;42.626;23.382;2023-04-01T05:21:35;93017.81;;;15.10;46.34
7768;BME280;3928;42.626;23.382;2023-04-01T05:24:02;92978.97;;;14.96;46.66
7768;BME280;3928;42.626;23.382;2023-04-01T05:26:29;93003.31;;;15.07;46.63
7768;BME280;3928;42.626;23.382;2023-04-01T05:28:57;92967.47;;;14.85;46.52
7768;BME280;3928;42.626;23.382;2023-04-01T05:31:24;92912.84;;;14.61;47.28
7768;BME280;3928;42.626;23.382;2023-04-01T05:33:51;92990.81;;;15.15;47.00
7768;BME280;3928;42.626;23.382;2023-04-01T05:36:20;92993.44;;;15.14;47.38
7768;BME280;3928;42.626;23.382;2023-04-01T05:38:47;92991.78;;;15.29;47.48
7768;BME280;3928;42.626;23.382;2023-04-01T05:41:16;92978.28;;;15.39;47.76
7768;BME280;3928;42.626;23.382;2023-04-01T05:43:43;92987.97;;;15.50;47.51
7768;BME280;3928;42.626;23.382;2023-04-01T05:46:10;92991.25;;;15.38;48.16
7768;BME280;3928;42.626;23.382;2023-04-01T05:48:38;92990.38;;;15.23;48.65
7768;BME280;3928;42.626;23.382;2023-04-01T05:51:05;92983.16;;;15.44;47.89
7768;BME280;3928;42.626;23.382;2023-04-01T05:53:33;92966.88;;;15.58;47.29
7768;BME280;3928;42.626;23.382;2023-04-01T05:56:02;92986.19;;;15.82;47.28
7768;BME280;3928;42.626;23.382;2023-04-01T05:58:30;92974.69;;;16.02;46.86
7768;BME280;3928;42.626;23.382;2023-04-01T06:01:01;92959.50;;;16.10;45.98
7768;BME280;3928;42.626;23.382;2023-04-01T06:03:28;92960.81;;;16.31;45.95
7768;BME280;3928;42.626;23.382;2023-04-01T06:05:55;92962.50;;;16.47;45.65
7768;BME280;3928;42.626;23.382;2023-04-01T06:08:23;92970.06;;;16.64;46.23
7768;BME280;3928;42.626;23.382;2023-04-01T06:11:05;92959.81;;;16.77;46.14
7768;BME280;3928;42.626;23.382;2023-04-01T06:13:51;92975.06;;;16.95;42.48
7768;BME280;3928;42.626;23.382;2023-04-01T06:16:31;92970.44;;;16.86;43.09
7768;BME280;3928;42.626;23.382;2023-04-01T06:19:17;92969.22;;;16.92;43.77
7768;BME280;3928;42.626;23.382;2023-04-01T06:22:00;92971.59;;;17.09;50.71
7768;BME280;3928;42.626;23.382;2023-04-01T06:24:44;92879.59;;;16.75;45.90
7768;BME280;3928;42.626;23.382;2023-04-01T06:27:26;92963.81;;;17.36;43.25
7768;BME280;3928;42.626;23.382;2023-04-01T06:30:06;92947.00;;;17.29;43.24
7768;BME280;3928;42.626;23.382;2023-04-01T06:32:48;92972.47;;;17.49;41.92
7768;BME280;3928;42.626;23.382;2023-04-01T06:35:41;92972.69;;;17.46;41.29
7768;BME280;3928;42.626;23.382;2023-04-01T06:38:38;92964.56;;;17.38;41.10
7768;BME280;3928;42.626;23.382;2023-04-01T06:41:36;92967.50;;;16.78;41.99
7768;BME280;3928;42.626;23.382;2023-04-01T06:44:15;92952.13;;;16.89;42.47
7768;BME280;3928;42.626;23.382;2023-04-01T06:46:47;92932.22;;;16.90;42.73
7768;BME280;3928;42.626;23.382;2023-04-01T06:49:28;92922.16;;;16.57;44.66
7768;BME280;3928;42.626;23.382;2023-04-01T06:52:01;92938.72;;;16.40;44.87
7768;BME280;3928;42.626;23.382;2023-04-01T06:54:32;92943.81;;;16.56;45.25
7768;BME280;3928;42.626;23.382;2023-04-01T06:57:03;92934.22;;;16.58;44.49
7768;BME280;3928;42.626;23.382;2023-04-01T06:59:35;92927.53;;;16.54;44.71
7768;BME280;3928;42.626;23.382;2023-04-01T07:02:10;92924.56;;;16.60;44.74
7768;BME280;3928;42.626;23.382;2023-04-01T07:04:44;92935.31;;;16.82;44.85
7768;BME280;3928;42.626;23.382;2023-04-01T07:07:19;92928.25;;;16.84;44.68
7768;BME280;3928;42.626;23.382;2023-04-01T07:09:50;92920.81;;;16.92;44.75
7768;BME280;3928;42.626;23.382;2023-04-01T07:12:23;92931.94;;;16.94;43.96
7768;BME280;3928;42.626;23.382;2023-04-01T07:14:57;92912.00;;;16.82;44.56
7768;BME280;3928;42.626;23.382;2023-04-01T07:17:28;92928.41;;;16.95;45.22
7768;BME280;3928;42.626;23.382;2023-04-01T07:20:01;92915.16;;;17.00;44.48
7768;BME280;3928;42.626;23.382;2023-04-01T07:22:32;92909.97;;;17.00;44.57
7768;BME280;3928;42.626;23.382;2023-04-01T07:25:04;92885.47;;;16.91;45.42
7768;BME280;3928;42.626;23.382;2023-04-01T07:27:32;92911.22;;;16.80;46.33
7768;BME280;3928;42.626;23.382;2023-04-01T07:30:00;92928.09;;;16.45;47.52
7768;BME280;3928;42.626;23.382;2023-04-01T07:32:33;92926.25;;;16.47;47.94
7768;BME280;3928;42.626;23.382;2023-04-01T07:35:14;92907.38;;;16.45;48.42
7768;BME280;3928;42.626;23.382;2023-04-01T07:37:55;92910.06;;;16.43;50.00
7768;BME280;3928;42.626;23.382;2023-04-01T07:40:29;92926.09;;;16.35;50.25
7768;BME280;3928;42.626;23.382;2023-04-01T07:43:22;92913.31;;;16.04;51.79
7768;BME280;3928;42.626;23.382;2023-04-01T07:45:58;92913.94;;;15.93;52.10
7768;BME280;3928;42.626;23.382;2023-04-01T07:48:33;92910.25;;;15.97;51.98
7768;BME280;3928;42.626;23.382;2023-04-01T07:51:03;92913.31;;;16.04;51.79
7768;BME280;3928;42.626;23.382;2023-04-01T07:53:37;92913.50;;;16.15;51.66
7768;BME280;3928;42.626;23.382;2023-04-01T07:56:06;92899.19;;;16.24;51.58
7768;BME280;3928;42.626;23.382;2023-04-01T07:58:43;92909.69;;;16.21;51.65
7768;BME280;3928;42.626;23.382;2023-04-01T08:01:19;92918.50;;;16.18;51.95
7768;BME280;3928;42.626;23.382;2023-04-01T08:04:11;92897.25;;;16.13;51.72
7768;BME280;3928;42.626;23.382;2023-04-01T08:06:45;92892.03;;;16.42;51.25
7768;BME280;3928;42.626;23.382;2023-04-01T08:09:21;92894.34;;;16.46;51.19
7768;BME280;3928;42.626;23.382;2023-04-01T08:12:02;92890.19;;;16.44;51.53
7768;BME280;3928;42.626;23.382;2023-04-01T08:14:33;92883.06;;;16.33;51.17
7768;BME280;3928;42.626;23.382;2023-04-01T08:17:07;92887.97;;;16.52;51.18
7768;BME280;3928;42.626;23.382;2023-04-01T08:19:51;92893.88;;;16.68;50.38
7768;BME280;3928;42.626;23.382;2023-04-01T08:22:26;92891.63;;;16.76;50.75
7768;BME280;3928;42.626;23.382;2023-04-01T08:24:55;92885.53;;;16.77;50.28
7768;BME280;3928;42.626;23.382;2023-04-01T08:27:31;92868.31;;;16.76;50.57
7768;BME280;3928;42.626;23.382;2023-04-01T08:30:02;92851.41;;;16.98;50.27
7768;BME280;3928;42.626;23.382;2023-04-01T08:32:34;92840.16;;;17.11;49.60
7768;BME280;3928;42.626;23.382;2023-04-01T08:35:08;92855.91;;;17.08;48.37
7768;BME280;3928;42.626;23.382;2023-04-01T08:37:39;92856.72;;;17.09;48.12
7768;BME280;3928;42.626;23.382;2023-04-01T08:40:24;92833.31;;;17.10;48.60
7768;BME280;3928;42.626;23.382;2023-04-01T08:43:01;92820.06;;;17.28;48.54
7768;BME280;3928;42.626;23.382;2023-04-01T08:46:02;92802.84;;;17.39;47.74
7768;BME280;3928;42.626;23.382;2023-04-01T08:48:51;92799.66;;;17.48;48.47
7768;BME280;3928;42.626;23.382;2023-04-01T08:51:58;92808.00;;;17.79;47.83
7768;BME280;3928;42.626;23.382;2023-04-01T08:54:44;92806.75;;;18.34;47.47
7768;BME280;3928;42.626;23.382;2023-04-01T08:57:17;92807.69;;;18.69;45.80
7768;BME280;3928;42.626;23.382;2023-04-01T08:59:53;92791.53;;;19.01;44.80
7768;BME280;3928;42.626;23.382;2023-04-01T09:02:42;92797.34;;;19.40;43.39
7768;BME280;3928;42.626;23.382;2023-04-01T09:05:35;92796.84;;;19.59;43.37
7768;BME280;3928;42.626;23.382;2023-04-01T09:08:16;92801.00;;;19.83;42.72
7768;BME280;3928;42.626;23.382;2023-04-01T09:14:02;92785.84;;;19.89;40.47
7768;BME280;3928;42.626;23.382;2023-04-01T09:19:58;92794.41;;;20.02;38.54
7768;BME280;3928;42.626;23.382;2023-04-01T09:22:39;92803.38;;;19.86;36.17
7768;BME280;3928;42.626;23.382;2023-04-01T09:25:41;92776.63;;;19.73;37.95
7768;BME280;3928;42.626;23.382;2023-04-01T09:28:16;92793.03;;;19.63;38.28
7768;BME280;3928;42.626;23.382;2023-04-01T09:34:04;92771.88;;;19.56;38.69
7768;BME280;3928;42.626;23.382;2023-04-01T09:36:44;92780.63;;;19.55;38.37
7768;BME280;3928;42.626;23.382;2023-04-01T09:39:36;92769.50;;;19.64;38.69
7768;BME280;3928;42.626;23.382;2023-04-01T09:42:15;92752.22;;;19.63;40.49
7768;BME280;3928;42.626;23.382;2023-04-01T09:44:54;92774.03;;;19.84;40.10
7768;BME280;3928;42.626;23.382;2023-04-01T09:47:42;92770.00;;;19.92;39.50
7768;BME280;3928;42.626;23.382;2023-04-01T09:50:27;92764.56;;;20.06;38.25
7768;BME280;3928;42.626;23.382;2023-04-01T09:53:07;92767.03;;;20.19;38.96
7768;BME280;3928;42.626;23.382;2023-04-01T09:56:17;92761.44;;;20.23;37.85
7768;BME280;3928;42.626;23.382;2023-04-01T10:01:55;92747.84;;;20.08;37.97
7768;BME280;3928;42.626;23.382;2023-04-01T10:07:59;92737.09;;;20.02;38.05
7768;BME280;3928;42.626;23.382;2023-04-01T10:10:58;92738.50;;;20.06;38.08
7768;BME280;3928;42.626;23.382;2023-04-01T10:19:55;92729.31;;;19.68;39.14
7768;BME280;3928;42.626;23.382;2023-04-01T10:22:44;92719.22;;;19.75;39.32
7768;BME280;3928;42.626;23.382;2023-04-01T10:25:34;92704.88;;;19.47;40.30
7768;BME280;3928;42.626;23.382;2023-04-01T10:28:30;92696.06;;;19.61;40.22
7768;BME280;3928;42.626;23.382;2023-04-01T10:31:25;92718.81;;;19.35;40.36
7768;BME280;3928;42.626;23.382;2023-04-01T10:34:21;92716.94;;;19.48;39.09
7768;BME280;3928;42.626;23.382;2023-04-01T10:36:53;92715.34;;;19.69;39.52
7768;BME280;3928;42.626;23.382;2023-04-01T10:39:37;92710.34;;;19.89;39.15
7768;BME280;3928;42.626;23.382;2023-04-01T10:48:25;92705.34;;;20.19;39.53
7768;BME280;3928;42.626;23.382;2023-04-01T10:51:08;92607.69;;;19.70;38.62
7768;BME280;3928;42.626;23.382;2023-04-01T10:53:45;92685.38;;;19.86;38.97
7768;BME280;3928;42.626;23.382;2023-04-01T10:56:32;92683.50;;;19.77;38.26
7768;BME280;3928;42.626;23.382;2023-04-01T11:08:35;92672.25;;;19.20;39.62
7768;BME280;3928;42.626;23.382;2023-04-01T11:14:47;92653.84;;;19.57;43.92
7768;BME280;3928;42.626;23.382;2023-04-01T11:20:24;92657.13;;;19.81;39.65
7768;BME280;3928;42.626;23.382;2023-04-01T11:23:10;92649.66;;;19.77;39.64
7768;BME280;3928;42.626;23.382;2023-04-01T11:26:02;92651.22;;;19.57;38.76
7768;BME280;3928;42.626;23.382;2023-04-01T11:28:45;92663.91;;;19.04;35.01
7768;BME280;3928;42.626;23.382;2023-04-01T11:31:29;92658.44;;;19.42;34.70
7768;BME280;3928;42.626;23.382;2023-04-01T11:34:05;92675.44;;;19.35;34.43
7768;BME280;3928;42.626;23.382;2023-04-01T11:36:42;92694.72;;;19.33;34.96
7768;BME280;3928;42.626;23.382;2023-04-01T11:39:22;92691.69;;;19.04;35.23
7768;BME280;3928;42.626;23.382;2023-04-01T11:41:59;92735.91;;;19.15;35.53
7768;BME280;3928;42.626;23.382;2023-04-01T11:44:29;92806.41;;;18.51;39.77
7768;BME280;3928;42.626;23.382;2023-04-01T11:47:12;92806.59;;;17.48;46.30
7768;BME280;3928;42.626;23.382;2023-04-01T11:49:50;92816.19;;;17.08;52.91
7768;BME280;3928;42.626;23.382;2023-04-01T11:52:35;92837.28;;;16.89;56.27
7768;BME280;3928;42.626;23.382;2023-04-01T11:55:28;92852.50;;;15.97;60.51
7768;BME280;3928;42.626;23.382;2023-04-01T11:58:22;92875.31;;;16.33;63.40
7768;BME280;3928;42.626;23.382;2023-04-01T12:01:25;92893.41;;;16.33;65.77
7768;BME280;3928;42.626;23.382;2023-04-01T12:07:08;92916.09;;;15.57;71.17
7768;BME280;3928;42.626;23.382;2023-04-01T12:09:49;92828.25;;;15.41;71.34
7768;BME280;3928;42.626;23.382;2023-04-01T12:12:27;92848.75;;;15.44;72.49
7768;BME280;3928;42.626;23.382;2023-04-01T12:15:08;92902.91;;;15.31;74.81
7768;BME280;3928;42.626;23.382;2023-04-01T12:17:44;92886.03;;;15.40;76.93
7768;BME280;3928;42.626;23.382;2023-04-01T12:20:33;92886.75;;;15.72;77.67
7768;BME280;3928;42.626;23.382;2023-04-01T12:23:16;92897.41;;;15.96;76.23
7768;BME280;3928;42.626;23.382;2023-04-01T12:26:10;92891.25;;;16.13;75.82
7768;BME280;3928;42.626;23.382;2023-04-01T12:28:54;92869.31;;;16.18;76.09
7768;BME280;3928;42.626;23.382;2023-04-01T12:31:38;92809.34;;;15.97;74.73
7768;BME280;3928;42.626;23.382;2023-04-01T12:34:33;92863.03;;;16.36;73.07
7768;BME280;3928;42.626;23.382;2023-04-01T12:37:12;92877.59;;;16.52;73.55
7768;BME280;3928;42.626;23.382;2023-04-01T12:39:51;92883.66;;;16.65;72.02
7768;BME280;3928;42.626;23.382;2023-04-01T12:42:40;92897.94;;;16.72;70.47
7768;BME280;3928;42.626;23.382;2023-04-01T12:45:28;92904.13;;;16.84;69.84
7768;BME280;3928;42.626;23.382;2023-04-01T12:48:28;92884.41;;;16.81;68.77
7768;BME280;3928;42.626;23.382;2023-04-01T12:57:13;92877.44;;;16.26;72.98
7768;BME280;3928;42.626;23.382;2023-04-01T12:59:57;92884.75;;;16.34;75.45
7768;BME280;3928;42.626;23.382;2023-04-01T13:02:38;92890.66;;;16.22;74.97
7768;BME280;3928;42.626;23.382;2023-04-01T13:05:29;92880.97;;;15.83;76.42
7768;BME280;3928;42.626;23.382;2023-04-01T13:08:21;92873.03;;;16.00;75.59
7768;BME280;3928;42.626;23.382;2023-04-01T13:11:08;92837.38;;;15.91;74.73
7768;BME280;3928;42.626;23.382;2023-04-01T13:13:55;92882.00;;;16.23;74.69
7768;BME280;3928;42.626;23.382;2023-04-01T13:16:31;92871.06;;;16.32;73.89
7768;BME280;3928;42.626;23.382;2023-04-01T13:19:03;92828.88;;;16.44;74.23
7768;BME280;3928;42.626;23.382;2023-04-01T13:21:43;92805.81;;;16.54;74.13
7768;BME280;3928;42.626;23.382;2023-04-01T13:24:25;92789.16;;;16.72;74.72
7768;BME280;3928;42.626;23.382;2023-04-01T13:26:57;92795.56;;;16.79;72.65
7768;BME280;3928;42.626;23.382;2023-04-01T13:29:31;92788.03;;;17.29;73.83
7768;BME280;3928;42.626;23.382;2023-04-01T13:32:13;92765.91;;;17.87;69.56
7768;BME280;3928;42.626;23.382;2023-04-01T13:34:58;92775.91;;;18.90;63.00
7768;BME280;3928;42.626;23.382;2023-04-01T13:37:41;92773.06;;;20.08;60.14
7768;BME280;3928;42.626;23.382;2023-04-01T13:40:33;92751.69;;;20.59;50.60
7768;BME280;3928;42.626;23.382;2023-04-01T13:43:04;92746.97;;;21.17;42.80
7768;BME280;3928;42.626;23.382;2023-04-01T13:45:50;92770.91;;;21.22;41.56
7768;BME280;3928;42.626;23.382;2023-04-01T13:48:42;92768.09;;;21.14;42.64
7768;BME280;3928;42.626;23.382;2023-04-01T13:51:30;92751.28;;;21.39;42.22
7768;BME280;3928;42.626;23.382;2023-04-01T13:57:12;92757.72;;;22.07;41.25
7768;BME280;3928;42.626;23.382;2023-04-01T14:00:03;92766.56;;;22.25;38.30
7768;BME280;3928;42.626;23.382;2023-04-01T14:03:03;92744.13;;;22.63;40.32
7768;BME280;3928;42.626;23.382;2023-04-01T14:05:51;92746.63;;;23.71;38.10
7768;BME280;3928;42.626;23.382;2023-04-01T14:08:42;92726.84;;;24.23;36.12
7768;BME280;3928;42.626;23.382;2023-04-01T14:11:20;92732.69;;;24.72;39.06
7768;BME280;3928;42.626;23.382;2023-04-01T14:14:01;92736.13;;;24.72;40.55
7768;BME280;3928;42.626;23.382;2023-04-01T14:16:55;92755.31;;;24.73;39.61
7768;BME280;3928;42.626;23.382;2023-04-01T14:19:53;92749.00;;;24.38;40.17
7768;BME280;3928;42.626;23.382;2023-04-01T14:22:35;92725.38;;;23.83;41.04
7768;BME280;3928;42.626;23.382;2023-04-01T14:25:21;92730.13;;;23.31;43.09
7768;BME280;3928;42.626;23.382;2023-04-01T14:28:01;92713.34;;;23.15;43.45
7768;BME280;3928;42.626;23.382;2023-04-01T14:30:57;92706.44;;;22.75;43.93
7768;BME280;3928;42.626;23.382;2023-04-01T14:33:35;92719.91;;;22.51;44.22
7768;BME280;3928;42.626;23.382;2023-04-01T14:36:29;92709.78;;;22.17;45.40
7768;BME280;3928;42.626;23.382;2023-04-01T14:39:12;92713.78;;;21.91;46.08
7768;BME280;3928;42.626;23.382;2023-04-01T14:41:47;92724.03;;;21.52;47.71
7768;BME280;3928;42.626;23.382;2023-04-01T14:44:27;92691.94;;;20.78;49.52
7768;BME280;3928;42.626;23.382;2023-04-01T14:47:18;92720.84;;;20.75;49.40
7768;BME280;3928;42.626;23.382;2023-04-01T14:49:52;92706.22;;;20.63;49.44
7768;BME280;3928;42.626;23.382;2023-04-01T14:52:24;92696.22;;;20.25;51.14